Price, Arkansas
Current Conditions -  °F | °C
As of 6:53 AM on Sunday 23 Nov 2014 (Local Time) from KHOT Reporting Station
Light Rain Light Rain  
Wind Chill: 59°   Ceiling: 600
Heat Index: 59°   Visibility: 7mi
Dew Point: 57°   Wind: 3mph
Humidity: 93%   Direction: 160°SSE
Pressure: 29.63"   Gusts: NA
Location:  34.5331°N, 93.0035°W
Report Text: KHOT 231253Z AUTO 16003KT 7SM -RA OVC006 15/14 A2963 RMK AO2 CIG 004V009 SLP030 P0006 T01500139
Loading
Personal Weather Stations






























Interactive Weather Map New forecast layout! Learn more

10-Day Weather Forecast

Advertisements
Track Severe Weather on mobile